Chas, Argentina
Current Conditions -  °F | °C
As of 11:00 PM on Sunday 21 Dec 2014 (Local Time) from SAEZ Reporting Station
Broken Clouds Broken Clouds  
Wind Chill: 18°   Ceiling: 20000
Heat Index: 18°   Visibility: 6mi
Dew Point: 10°   Wind: 7mph
Humidity: 59%   Direction: 90°E
Pressure: 29.88"   Gusts: NA
Location:  35.83°S, 58.54°W
Report Text: SAEZ 220200Z 09006KT 080V170 9999 SCT030 FEW050CB SCT100 BKN200 18/10 Q1012 RMK LGHT OBS TO S
Loading
Personal Weather Stations






























Interactive Weather Map New forecast layout! Learn more

10-Day Weather Forecast

Advertisements
Track Severe Weather on mobile